createdAt,value
2023-04-25T00:01:41.266Z,14.88
2023-04-25T00:04:09.020Z,13.23
2023-04-25T00:09:11.301Z,14.57
2023-04-25T00:11:38.234Z,15.23
2023-04-25T00:14:06.572Z,15.02
2023-04-25T00:16:35.075Z,13.68
2023-04-25T00:19:04.219Z,15.70
2023-04-25T00:21:32.707Z,13.73
2023-04-25T00:24:00.405Z,17.15
2023-04-25T00:26:27.448Z,16.63
2023-04-25T00:28:55.633Z,22.83
2023-04-25T00:31:22.340Z,15.70
2023-04-25T00:33:50.327Z,19.48
2023-04-25T00:36:18.737Z,19.67
2023-04-25T00:38:45.347Z,19.25
2023-04-25T00:41:11.950Z,14.60
2023-04-25T00:43:39.095Z,20.92
2023-04-25T00:46:05.776Z,19.37
2023-04-25T00:48:32.439Z,16.58
2023-04-25T00:51:00.205Z,20.27
2023-04-25T00:53:28.491Z,17.25
2023-04-25T00:55:55.794Z,15.45
2023-04-25T00:58:23.316Z,14.55
2023-04-25T01:00:53.243Z,18.02
2023-04-25T01:03:23.850Z,20.80
2023-04-25T01:05:52.046Z,15.95
2023-04-25T01:10:45.217Z,21.42
2023-04-25T01:13:11.961Z,21.42
2023-04-25T01:15:38.636Z,18.98
2023-04-25T01:18:06.602Z,16.38
2023-04-25T01:23:01.465Z,20.77
2023-04-25T01:25:28.158Z,16.30
2023-04-25T01:27:54.930Z,18.50
2023-04-25T01:30:21.578Z,15.68
2023-04-25T01:32:49.353Z,15.00
2023-04-25T01:35:16.114Z,13.32
2023-04-25T01:37:44.274Z,19.70
2023-04-25T01:40:12.451Z,19.10
2023-04-25T01:42:41.986Z,15.35
2023-04-25T01:45:09.818Z,11.10
2023-04-25T01:47:36.552Z,19.90
2023-04-25T01:50:05.454Z,15.40
2023-04-25T01:52:32.089Z,15.50
2023-04-25T01:55:00.703Z,18.15
2023-04-25T01:57:27.371Z,14.68
2023-04-25T01:59:59.901Z,14.70
2023-04-25T02:02:27.772Z,11.90
2023-04-25T02:09:50.740Z,13.65
2023-04-25T02:12:17.377Z,21.15
2023-04-25T02:14:44.085Z,17.20
2023-04-25T02:17:13.899Z,20.25
2023-04-25T02:19:40.783Z,12.13
2023-04-25T02:22:07.454Z,15.18
2023-04-25T02:24:35.038Z,13.55
2023-04-25T02:27:03.459Z,17.67
2023-04-25T02:29:32.328Z,13.98
2023-04-25T02:31:59.001Z,16.67
2023-04-25T02:34:25.688Z,10.20
2023-04-25T02:36:52.367Z,16.60
2023-04-25T02:39:19.173Z,16.35
2023-04-25T02:41:46.682Z,15.57
2023-04-25T02:44:13.461Z,18.23
2023-04-25T02:46:40.686Z,12.43
2023-04-25T02:49:09.985Z,7.43
2023-04-25T02:51:38.958Z,11.32
2023-04-25T02:54:06.805Z,9.23
2023-04-25T02:56:33.446Z,10.20
2023-04-25T02:59:00.057Z,9.77
2023-04-25T03:01:26.723Z,10.70
2023-04-25T03:03:55.316Z,8.65
2023-04-25T03:06:22.379Z,12.65
2023-04-25T03:08:48.995Z,7.32
2023-04-25T03:11:15.619Z,10.48
2023-04-25T03:13:42.323Z,11.30
2023-04-25T03:16:09.052Z,9.05
2023-04-25T03:18:35.700Z,10.32
2023-04-25T03:21:02.331Z,13.00
2023-04-25T03:23:28.925Z,9.57
2023-04-25T03:25:55.600Z,12.45
2023-04-25T03:28:25.430Z,11.38
2023-04-25T03:30:52.633Z,13.23
2023-04-25T03:33:19.225Z,13.63
2023-04-25T03:35:46.947Z,8.07
2023-04-25T03:38:14.592Z,9.32
2023-04-25T03:40:41.590Z,9.20
2023-04-25T03:43:09.520Z,12.20
2023-04-25T03:48:03.116Z,11.13
2023-04-25T03:50:29.770Z,11.48
2023-04-25T03:52:56.371Z,10.40
2023-04-25T03:55:23.091Z,8.90
2023-04-25T03:57:49.769Z,8.07
2023-04-25T04:00:16.576Z,10.50
2023-04-25T04:02:45.318Z,8.00
2023-04-25T04:05:12.344Z,11.05
2023-04-25T04:07:41.275Z,9.93
2023-04-25T04:10:13.643Z,11.35
2023-04-25T04:12:40.620Z,9.88
2023-04-25T04:15:08.876Z,12.30
2023-04-25T04:17:36.674Z,11.07
2023-04-25T04:20:04.833Z,9.35
2023-04-25T04:22:31.529Z,12.30
2023-04-25T04:24:58.725Z,9.70
2023-04-25T04:27:25.441Z,11.25
2023-04-25T04:29:53.479Z,10.45
2023-04-25T04:32:20.181Z,16.20
2023-04-25T04:34:48.537Z,20.35
2023-04-25T04:37:16.046Z,15.25
2023-04-25T04:39:42.743Z,15.52
2023-04-25T04:42:10.067Z,14.10
2023-04-25T04:44:37.834Z,14.98
2023-04-25T04:47:07.297Z,16.42
2023-04-25T04:49:34.895Z,15.43
2023-04-25T04:52:01.901Z,16.92
2023-04-25T04:54:28.822Z,18.67
2023-04-25T04:56:57.280Z,16.00
2023-04-25T04:59:23.869Z,17.55
2023-04-25T05:01:51.827Z,18.95
2023-04-25T05:06:48.650Z,18.15
2023-04-25T05:09:16.438Z,20.20
2023-04-25T05:11:43.042Z,17.48
2023-04-25T05:14:09.656Z,16.63
2023-04-25T05:16:37.491Z,14.20
2023-04-25T05:21:32.549Z,20.25
2023-04-25T05:23:59.185Z,22.15
2023-04-25T05:26:25.956Z,18.85
2023-04-25T05:28:52.554Z,18.55
2023-04-25T05:31:19.121Z,21.33
2023-04-25T05:33:45.763Z,23.42
2023-04-25T05:36:12.353Z,17.52
2023-04-25T05:38:39.333Z,17.10
2023-04-25T05:41:08.514Z,16.67
2023-04-25T05:43:35.208Z,14.02
2023-04-25T05:46:02.230Z,18.17
2023-04-25T05:48:33.591Z,19.87
2023-04-25T05:51:00.237Z,21.35
2023-04-25T05:53:27.051Z,18.65
2023-04-25T05:55:53.862Z,21.60
2023-04-25T05:58:20.657Z,17.38
2023-04-25T06:00:47.482Z,15.45
2023-04-25T06:03:19.548Z,17.15
2023-04-25T06:05:47.403Z,17.17
2023-04-25T06:08:14.080Z,22.88
2023-04-25T06:10:40.909Z,15.18
2023-04-25T06:13:07.573Z,22.92
2023-04-25T06:15:35.387Z,22.45
2023-04-25T06:18:02.263Z,21.40
2023-04-25T06:20:29.271Z,18.98
2023-04-25T06:22:55.972Z,17.00
2023-04-25T06:25:22.577Z,19.63
2023-04-25T06:27:49.262Z,16.80
2023-04-25T06:33:41.127Z,15.25
2023-04-25T06:36:08.063Z,16.47
2023-04-25T06:38:35.980Z,23.30
2023-04-25T06:43:29.976Z,14.87
2023-04-25T06:45:57.258Z,9.70
2023-04-25T06:48:23.868Z,18.90
2023-04-25T06:50:50.543Z,13.57
2023-04-25T06:53:17.156Z,13.38
2023-04-25T06:55:43.742Z,12.43
2023-04-25T06:58:10.398Z,10.45
2023-04-25T07:00:37.573Z,16.60
2023-04-25T07:03:04.520Z,16.75
2023-04-25T07:05:31.250Z,18.83
2023-04-25T07:07:58.960Z,14.27
2023-04-25T07:10:26.366Z,17.52
2023-04-25T07:12:53.031Z,20.33
2023-04-25T07:15:19.722Z,14.93
2023-04-25T07:17:46.472Z,21.58
2023-04-25T07:20:13.661Z,9.37
2023-04-25T07:22:40.266Z,9.70
2023-04-25T07:25:07.537Z,21.75
2023-04-25T07:27:34.196Z,10.30
2023-04-25T07:30:00.872Z,13.40
2023-04-25T07:32:28.106Z,14.95
2023-04-25T07:34:54.780Z,13.63
2023-04-25T07:37:21.587Z,13.63
2023-04-25T07:39:48.595Z,13.55
2023-04-25T07:42:15.717Z,12.70
2023-04-25T07:44:43.853Z,16.43
2023-04-25T07:47:10.902Z,10.63
2023-04-25T07:49:38.445Z,14.50
2023-04-25T07:52:07.261Z,11.23
2023-04-25T07:54:33.932Z,11.75
2023-04-25T07:57:00.924Z,13.27
2023-04-25T07:59:29.998Z,16.80
2023-04-25T08:01:58.602Z,10.88
2023-04-25T08:04:26.879Z,13.52
2023-04-25T08:06:55.033Z,14.00
2023-04-25T08:11:50.097Z,12.82
2023-04-25T08:14:16.807Z,13.25
2023-04-25T08:16:43.548Z,11.60
2023-04-25T08:19:11.454Z,12.23
2023-04-25T08:24:05.170Z,15.48
2023-04-25T08:26:31.854Z,8.00
2023-04-25T08:28:58.560Z,11.07
2023-04-25T08:31:26.435Z,11.80
2023-04-25T08:36:37.928Z,11.02
2023-04-25T08:39:05.814Z,13.75
2023-04-25T08:41:32.876Z,12.50
2023-04-25T08:44:02.169Z,12.80
2023-04-25T08:46:29.875Z,11.73
2023-04-25T08:49:02.001Z,10.15
2023-04-25T08:51:32.934Z,13.48
2023-04-25T08:54:30.961Z,9.88
2023-04-25T08:56:59.164Z,9.00
2023-04-25T08:59:26.674Z,14.43
2023-04-25T09:01:53.323Z,9.30
2023-04-25T09:04:21.540Z,9.20
2023-04-25T09:06:49.212Z,5.85
2023-04-25T09:09:16.079Z,17.98
2023-04-25T09:11:43.914Z,13.27
2023-04-25T09:14:15.241Z,7.35
2023-04-25T09:17:14.469Z,8.63
2023-04-25T09:19:42.247Z,13.73
2023-04-25T09:22:10.856Z,8.75
2023-04-25T09:24:40.077Z,10.38
2023-04-25T09:27:19.034Z,3.35
2023-04-25T09:29:45.805Z,14.98
2023-04-25T09:32:24.538Z,7.43
2023-04-25T09:34:56.677Z,11.23
2023-04-25T09:37:26.377Z,12.52
2023-04-25T09:39:56.857Z,12.88
2023-04-25T09:42:30.073Z,10.00
2023-04-25T09:44:57.649Z,9.02
2023-04-25T09:47:26.588Z,4.07
2023-04-25T09:49:54.555Z,1.40
2023-04-25T09:54:52.286Z,6.88
2023-04-25T09:57:24.661Z,5.05
2023-04-25T09:59:53.807Z,7.30
2023-04-25T10:02:22.957Z,6.07
2023-04-25T10:04:56.617Z,9.25
2023-04-25T10:07:27.784Z,7.15
2023-04-25T10:10:05.549Z,8.30
2023-04-25T10:15:00.590Z,9.47
2023-04-25T10:17:29.419Z,3.50
2023-04-25T10:19:56.634Z,5.32
2023-04-25T10:22:36.333Z,5.27
2023-04-25T10:25:07.210Z,9.82
2023-04-25T10:27:35.137Z,4.00
2023-04-25T10:32:33.861Z,8.60
2023-04-25T10:35:14.456Z,10.13
2023-04-25T10:37:58.480Z,9.32
2023-04-25T10:40:25.138Z,7.40
2023-04-25T10:42:58.072Z,4.78
2023-04-25T10:45:24.803Z,11.60
2023-04-25T10:47:51.578Z,9.32
2023-04-25T10:50:18.972Z,8.75
2023-04-25T10:52:45.921Z,21.73
2023-04-25T10:55:12.829Z,17.17
2023-04-25T10:57:45.303Z,16.70
2023-04-25T11:00:19.743Z,21.35
2023-04-25T11:02:48.105Z,10.77
2023-04-25T11:05:24.456Z,5.88
2023-04-25T11:08:03.802Z,9.63
2023-04-25T11:10:37.546Z,13.27
2023-04-25T11:13:04.908Z,10.50
2023-04-25T11:15:31.605Z,6.85
2023-04-25T11:17:58.246Z,8.57
2023-04-25T11:20:28.504Z,7.85
2023-04-25T11:22:58.262Z,7.50
2023-04-25T11:25:26.185Z,3.40
2023-04-25T11:30:21.963Z,6.22
2023-04-25T11:32:48.987Z,7.47
2023-04-25T11:35:16.452Z,7.73
2023-04-25T11:37:45.005Z,8.20
2023-04-25T11:40:12.857Z,6.78
2023-04-25T11:42:48.825Z,6.00
2023-04-25T11:45:16.068Z,6.47
2023-04-25T11:47:43.041Z,11.57
2023-04-25T11:50:10.396Z,16.40
2023-04-25T11:52:48.060Z,8.50
2023-04-25T11:55:17.586Z,8.07
2023-04-25T11:57:45.724Z,7.93
2023-04-25T12:00:22.796Z,7.65
2023-04-25T12:02:54.445Z,7.88
2023-04-25T12:07:54.208Z,11.35
2023-04-25T12:10:22.079Z,9.80
2023-04-25T12:15:25.879Z,8.30
2023-04-25T12:17:55.022Z,11.43
2023-04-25T12:20:26.272Z,6.10
2023-04-25T12:22:53.568Z,7.80
2023-04-25T12:25:36.664Z,5.20
2023-04-25T12:28:15.333Z,4.78
2023-04-25T12:30:59.066Z,6.40
2023-04-25T12:33:28.753Z,5.43
2023-04-25T12:35:56.154Z,5.40
2023-04-25T12:38:23.641Z,5.80
2023-04-25T12:40:51.109Z,5.03
2023-04-25T12:43:18.352Z,5.43
2023-04-25T12:45:46.410Z,8.20
2023-04-25T12:48:14.079Z,6.05
2023-04-25T12:50:40.837Z,5.88
2023-04-25T12:53:07.427Z,7.75
2023-04-25T12:55:34.145Z,4.45
2023-04-25T12:58:02.080Z,6.05
2023-04-25T13:02:55.603Z,6.22
2023-04-25T13:05:23.015Z,8.40
2023-04-25T13:07:52.586Z,5.88
2023-04-25T13:10:19.253Z,4.88
2023-04-25T13:12:47.465Z,9.50
2023-04-25T13:15:14.178Z,8.45
2023-04-25T13:17:41.507Z,6.15
2023-04-25T13:20:11.999Z,5.43
2023-04-25T13:22:39.844Z,5.05
2023-04-25T13:30:05.854Z,4.50
2023-04-25T13:32:32.493Z,6.05
2023-04-25T13:35:00.888Z,6.55
2023-04-25T13:37:28.469Z,4.68
2023-04-25T13:39:56.501Z,8.23
2023-04-25T13:42:28.903Z,7.78
2023-04-25T13:44:56.103Z,8.23
2023-04-25T13:47:25.986Z,7.55
2023-04-25T13:49:52.632Z,4.90
2023-04-25T13:52:19.579Z,6.85
2023-04-25T13:54:46.303Z,8.10
2023-04-25T13:57:13.177Z,5.72
2023-04-25T13:59:40.490Z,2.93
2023-04-25T14:02:07.752Z,6.45
2023-04-25T14:04:34.692Z,6.60
2023-04-25T14:07:01.875Z,7.43
2023-04-25T14:09:28.551Z,3.17
2023-04-25T14:11:56.575Z,7.47
2023-04-25T14:14:24.598Z,8.63
2023-04-25T14:16:51.765Z,6.80
2023-04-25T14:19:22.412Z,7.78
2023-04-25T14:21:49.402Z,4.25
2023-04-25T14:24:16.153Z,5.55
2023-04-25T14:26:43.755Z,3.78
2023-04-25T14:29:13.245Z,6.18
2023-04-25T14:31:42.361Z,5.70
2023-04-25T14:34:12.083Z,4.10
2023-04-25T14:36:41.179Z,3.22
2023-04-25T14:39:07.807Z,3.40
2023-04-25T14:41:34.480Z,4.20
2023-04-25T14:44:01.067Z,5.57
2023-04-25T14:46:27.960Z,3.20
2023-04-25T14:48:56.988Z,3.57
2023-04-25T14:51:23.788Z,2.63
2023-04-25T14:53:51.918Z,5.18
2023-04-25T14:56:18.825Z,6.30
2023-04-25T14:58:46.695Z,3.60
2023-04-25T15:01:14.157Z,5.50
2023-04-25T15:03:43.964Z,2.25
2023-04-25T15:06:11.007Z,5.60
2023-04-25T15:08:37.783Z,7.90
2023-04-25T15:11:04.779Z,2.60
2023-04-25T15:13:32.639Z,4.67
2023-04-25T15:15:59.252Z,3.53
2023-04-25T15:18:26.011Z,2.63
2023-04-25T15:20:55.158Z,7.30
2023-04-25T15:23:22.791Z,4.82
2023-04-25T15:28:17.937Z,5.40
2023-04-25T15:30:44.919Z,3.97
2023-04-25T15:33:11.835Z,5.60
2023-04-25T15:35:38.566Z,5.27
2023-04-25T15:38:05.513Z,5.90
2023-04-25T15:40:32.213Z,5.00
2023-04-25T15:42:59.753Z,2.67
2023-04-25T15:45:27.083Z,3.95
2023-04-25T15:47:57.083Z,4.20
2023-04-25T15:50:24.228Z,5.45
2023-04-25T15:52:51.879Z,5.43
2023-04-25T15:55:19.697Z,3.72
2023-04-25T16:00:15.265Z,4.10
2023-04-25T16:02:44.311Z,6.88
2023-04-25T16:05:13.227Z,5.10
2023-04-25T16:07:41.929Z,4.78
2023-04-25T16:10:10.001Z,5.57
2023-04-25T16:12:37.225Z,6.07
2023-04-25T16:15:05.052Z,4.07
2023-04-25T16:20:04.353Z,8.35
2023-04-25T16:22:32.002Z,4.65
2023-04-25T16:24:58.564Z,4.40
2023-04-25T16:27:25.798Z,5.47
2023-04-25T16:29:52.533Z,4.15
2023-04-25T16:32:19.730Z,4.13
2023-04-25T16:34:46.596Z,3.83
2023-04-25T16:37:13.524Z,2.10
2023-04-25T16:39:41.474Z,5.70
2023-04-25T16:42:08.113Z,5.63
2023-04-25T16:44:35.572Z,5.47
2023-04-25T16:47:02.664Z,3.47
2023-04-25T16:49:29.456Z,4.90
2023-04-25T16:51:56.277Z,5.75
2023-04-25T16:54:24.745Z,2.92
2023-04-25T16:56:52.732Z,2.35
2023-04-25T16:59:19.921Z,3.75
2023-04-25T17:01:46.601Z,6.88
2023-04-25T17:04:13.429Z,7.45
2023-04-25T17:06:40.198Z,4.53
2023-04-25T17:09:06.890Z,4.07
2023-04-25T17:11:33.692Z,3.97
2023-04-25T17:14:01.507Z,4.07
2023-04-25T17:16:36.741Z,4.72
2023-04-25T17:19:06.938Z,9.90
2023-04-25T17:21:34.816Z,4.88
2023-04-25T17:26:28.933Z,3.67
2023-04-25T17:28:58.687Z,9.18
2023-04-25T17:31:26.295Z,4.65
2023-04-25T17:33:53.095Z,6.00
2023-04-25T17:36:19.986Z,5.10
2023-04-25T17:38:47.178Z,3.42
2023-04-25T17:41:15.180Z,5.47
2023-04-25T17:43:42.293Z,6.15
2023-04-25T17:46:09.090Z,5.60
2023-04-25T17:48:36.760Z,5.00
2023-04-25T17:51:03.479Z,4.32
2023-04-25T17:53:30.325Z,9.02
2023-04-25T18:14:46.275Z,5.57
2023-04-25T18:17:14.638Z,3.28
2023-04-25T18:19:43.119Z,5.93
2023-04-25T18:22:10.225Z,3.75
2023-04-25T18:24:37.578Z,4.63
2023-04-25T18:27:06.860Z,4.95
2023-04-25T18:29:34.289Z,3.97
2023-04-25T18:32:01.689Z,9.43
2023-04-25T18:34:28.456Z,5.88
2023-04-25T18:36:57.353Z,5.90
2023-04-25T18:39:26.074Z,5.30
2023-04-25T18:41:59.290Z,4.88
2023-04-25T18:44:34.018Z,6.05
2023-04-25T18:47:01.310Z,7.35
2023-04-25T18:49:28.534Z,4.57
2023-04-25T18:51:57.534Z,5.70
2023-04-25T18:54:24.156Z,5.95
2023-04-25T18:56:51.480Z,8.90
2023-04-25T18:59:18.486Z,5.53
2023-04-25T19:01:45.931Z,6.47
2023-04-25T19:04:12.689Z,4.60
2023-04-25T19:06:39.477Z,6.47
2023-04-25T19:09:10.422Z,4.60
2023-04-25T19:11:39.274Z,5.57
2023-04-25T19:14:05.885Z,4.30
2023-04-25T19:16:38.890Z,5.63
2023-04-25T19:19:07.443Z,10.25
2023-04-25T19:21:35.564Z,4.70
2023-04-25T19:24:06.789Z,4.28
2023-04-25T19:26:33.465Z,4.63
2023-04-25T19:29:14.760Z,3.50
2023-04-25T19:31:44.354Z,6.78
2023-04-25T19:34:11.712Z,5.28
2023-04-25T19:36:40.098Z,5.13
2023-04-25T19:39:07.857Z,5.18
2023-04-25T19:41:36.398Z,5.25
2023-04-25T19:44:08.611Z,4.57
2023-04-25T19:46:36.119Z,5.35
2023-04-25T19:49:07.082Z,7.88
2023-04-25T19:51:34.523Z,5.88
2023-04-25T19:54:01.229Z,4.57
2023-04-25T19:56:28.053Z,7.35
2023-04-25T19:58:54.937Z,5.70
2023-04-25T20:01:22.584Z,7.30
2023-04-25T20:03:52.972Z,5.57
2023-04-25T20:06:19.993Z,5.72
2023-04-25T20:08:47.448Z,3.92
2023-04-25T20:11:15.404Z,7.22
2023-04-25T20:13:46.805Z,6.60
2023-04-25T20:16:19.973Z,4.97
2023-04-25T20:18:50.759Z,7.93
2023-04-25T20:21:17.792Z,4.45
2023-04-25T20:23:44.785Z,5.18
2023-04-25T20:26:12.836Z,7.35
2023-04-25T20:28:39.589Z,8.60
2023-04-25T20:31:06.706Z,6.47
2023-04-25T20:33:36.804Z,4.30
2023-04-25T20:36:03.725Z,4.18
2023-04-25T20:38:31.614Z,5.90
2023-04-25T20:40:58.585Z,5.63
2023-04-25T20:43:27.025Z,10.27
2023-04-25T20:45:54.910Z,4.93
2023-04-25T20:48:22.157Z,7.90
2023-04-25T20:50:48.863Z,7.50
2023-04-25T20:53:15.730Z,7.75
2023-04-25T20:55:42.658Z,8.38
2023-04-25T20:58:09.507Z,6.30
2023-04-25T21:00:36.433Z,5.63
2023-04-25T21:03:05.173Z,7.53
2023-04-25T21:05:33.332Z,9.40
2023-04-25T21:10:26.660Z,5.10
2023-04-25T21:12:53.798Z,11.00
2023-04-25T21:15:21.475Z,5.57
2023-04-25T21:17:52.742Z,5.07
2023-04-25T21:20:20.921Z,7.75
2023-04-25T21:22:51.810Z,6.75
2023-04-25T21:25:25.525Z,8.18
2023-04-25T21:27:53.055Z,7.85
2023-04-25T21:30:23.381Z,5.55
2023-04-25T21:32:51.698Z,6.20
2023-04-25T21:35:23.098Z,7.65
2023-04-25T21:37:51.680Z,8.18
2023-04-25T21:40:18.951Z,6.07
2023-04-25T21:42:51.950Z,10.68
2023-04-25T21:45:22.226Z,6.78
2023-04-25T21:47:49.353Z,7.35
2023-04-25T21:50:16.470Z,6.33
2023-04-25T21:52:43.426Z,11.33
2023-04-25T21:55:11.253Z,10.18
2023-04-25T21:57:43.749Z,9.15
2023-04-25T22:00:28.943Z,6.22
2023-04-25T22:02:55.708Z,8.27
2023-04-25T22:05:24.100Z,6.50
2023-04-25T22:07:51.779Z,7.18
2023-04-25T22:10:19.846Z,10.48
2023-04-25T22:12:47.887Z,5.50
2023-04-25T22:15:14.435Z,9.13
2023-04-25T22:17:41.169Z,6.80
2023-04-25T22:20:13.536Z,9.75
2023-04-25T22:22:41.836Z,6.07
2023-04-25T22:25:17.986Z,8.60
2023-04-25T22:27:44.989Z,5.32
2023-04-25T22:30:14.980Z,7.57
2023-04-25T22:32:42.249Z,5.70
2023-04-25T22:35:09.387Z,4.95
2023-04-25T22:37:37.266Z,8.93
2023-04-25T22:42:38.716Z,8.35
2023-04-25T22:45:07.135Z,5.20
2023-04-25T22:47:35.223Z,8.38
2023-04-25T22:50:05.856Z,6.65
2023-04-25T22:52:35.497Z,8.32
2023-04-25T22:55:03.449Z,8.38
2023-04-25T22:59:57.777Z,6.43
2023-04-25T23:02:28.050Z,5.20
2023-04-25T23:04:57.488Z,10.00
2023-04-25T23:07:25.451Z,7.50
2023-04-25T23:12:19.392Z,5.03
2023-04-25T23:14:53.724Z,6.03
2023-04-25T23:17:20.681Z,7.10
2023-04-25T23:19:48.436Z,8.02
2023-04-25T23:22:15.187Z,4.18
2023-04-25T23:24:42.154Z,4.60
2023-04-25T23:27:08.783Z,6.57
2023-04-25T23:29:35.642Z,11.95
2023-04-25T23:32:02.280Z,6.22
2023-04-25T23:34:32.503Z,8.63
2023-04-25T23:37:01.482Z,6.65
2023-04-25T23:39:30.070Z,6.38
2023-04-25T23:41:57.871Z,5.85
2023-04-25T23:44:24.547Z,5.70
2023-04-25T23:46:53.931Z,7.75
2023-04-25T23:49:21.142Z,5.78
2023-04-25T23:51:47.812Z,5.43
2023-04-25T23:54:16.871Z,7.32
2023-04-25T23:56:43.849Z,6.97
